Time;durP1;ratioP1;P1;durP2;ratioP2;P2;SDS_P1;SDS_P2;PMS_P1;PMS_P2;Temp;Humidity;BMP_temperature;BMP_pressure;BME280_temperature;BME280_humidity;BME280_pressure;Samples;Min_cycle;Max_cycle;Signal;HPM_P1;HPM_P2
2022/08/25 00:01:37;;;;;;;5.47;2.55;;;;;;;;;;5075644;28;20076;-75
2022/08/25 00:04:04;;;;;;;5.07;2.60;;;;;;;;;;5075544;28;20033;-75
2022/08/25 00:06:31;;;;;;;4.88;2.72;;;;;;;;;;5083234;28;20115;-76
2022/08/25 00:08:58;;;;;;;4.43;2.40;;;;;;;;;;5072610;28;20107;-75
2022/08/25 00:11:25;;;;;;;7.72;2.55;;;;;;;;;;5079134;28;20027;-76
2022/08/25 00:13:53;;;;;;;4.80;2.60;;;;;;;;;;5084370;28;20020;-75
2022/08/25 00:16:20;;;;;;;4.75;2.15;;;;;;;;;;5074130;28;20039;-75
2022/08/25 00:18:47;;;;;;;5.93;2.47;;;;;;;;;;5077751;28;20032;-75
2022/08/25 00:21:14;;;;;;;6.07;2.58;;;;;;;;;;5072022;28;20040;-76
2022/08/25 00:23:40;;;;;;;7.32;2.90;;;;;;;;;;5078570;28;20090;-76
2022/08/25 00:26:07;;;;;;;6.78;2.63;;;;;;;;;;5083511;28;20564;-76
2022/08/25 00:28:34;;;;;;;4.88;2.10;;;;;;;;;;5085686;28;20024;-76
2022/08/25 00:31:00;;;;;;;6.72;3.20;;;;;;;;;;5080033;28;20032;-76
2022/08/25 00:33:26;;;;;;;5.80;2.53;;;;;;;;;;5082011;28;20028;-76
2022/08/25 00:35:53;;;;;;;5.38;2.58;;;;;;;;;;5081056;28;20101;-76
2022/08/25 00:38:19;;;;;;;6.32;2.90;;;;;;;;;;5087996;28;20016;-76
2022/08/25 00:40:45;;;;;;;7.30;2.60;;;;;;;;;;5087223;28;20400;-76
2022/08/25 00:43:12;;;;;;;5.63;2.83;;;;;;;;;;5086816;28;20032;-76
2022/08/25 00:45:39;;;;;;;4.80;2.60;;;;;;;;;;5088812;28;20038;-76
2022/08/25 00:48:05;;;;;;;4.57;2.28;;;;;;;;;;5080937;28;20488;-76
2022/08/25 00:50:33;;;;;;;5.97;2.72;;;;;;;;;;5086757;28;20598;-76
2022/08/25 00:53:02;;;;;;;5.25;2.50;;;;;;;;;;5086585;28;20111;-75
2022/08/25 00:55:30;;;;;;;7.05;2.42;;;;;;;;;;5089861;28;20056;-76
2022/08/25 00:57:59;;;;;;;8.55;2.75;;;;;;;;;;5082961;28;20107;-76
2022/08/25 01:00:28;;;;;;;4.68;2.55;;;;;;;;;;5088536;28;20068;-76
2022/08/25 01:02:55;;;;;;;5.75;3.05;;;;;;;;;;5082363;28;20070;-76
2022/08/25 01:05:21;;;;;;;4.50;2.80;;;;;;;;;;5082955;28;20046;-76
2022/08/25 01:07:49;;;;;;;6.53;2.88;;;;;;;;;;5083656;28;20040;-76
2022/08/25 01:10:16;;;;;;;8.70;2.80;;;;;;;;;;5083123;28;20029;-75
2022/08/25 01:12:42;;;;;;;6.53;3.10;;;;;;;;;;5084978;28;20029;-76
2022/08/25 01:15:09;;;;;;;5.70;2.22;;;;;;;;;;5083342;28;20024;-76
2022/08/25 01:17:44;;;;;;;7.47;2.88;;;;;;;;;;5081613;28;20040;-76
2022/08/25 01:20:13;;;;;;;5.75;2.30;;;;;;;;;;5088007;28;20115;-75
2022/08/25 01:22:39;;;;;;;6.20;2.53;;;;;;;;;;5082862;28;20064;-76
2022/08/25 01:25:11;;;;;;;6.30;2.33;;;;;;;;;;5082701;28;20025;-76
2022/08/25 01:27:36;;;;;;;8.45;3.08;;;;;;;;;;5077657;28;20056;-76
2022/08/25 01:30:04;;;;;;;5.35;2.88;;;;;;;;;;5082129;28;20353;-75
2022/08/25 01:32:32;;;;;;;4.93;2.58;;;;;;;;;;5082764;28;20086;-75
2022/08/25 01:34:58;;;;;;;5.55;2.70;;;;;;;;;;5074936;28;20145;-76
2022/08/25 01:37:24;;;;;;;7.43;3.17;;;;;;;;;;5072700;28;20831;-76
2022/08/25 01:39:50;;;;;;;5.57;2.38;;;;;;;;;;5085585;28;20032;-76
2022/08/25 01:42:35;;;;;;;6.28;2.92;;;;;;;;;;5076431;28;20032;-75
2022/08/25 01:45:01;;;;;;;7.18;2.75;;;;;;;;;;5081143;28;20040;-75
2022/08/25 01:47:27;;;;;;;6.43;2.80;;;;;;;;;;5081871;28;20031;-76
2022/08/25 01:49:53;;;;;;;6.63;3.28;;;;;;;;;;5087272;28;20036;-76
2022/08/25 01:52:20;;;;;;;9.05;2.90;;;;;;;;;;5071903;28;20047;-77
2022/08/25 01:54:46;;;;;;;7.78;3.05;;;;;;;;;;5084425;28;20032;-76
2022/08/25 01:57:12;;;;;;;8.20;4.95;;;;;;;;;;5087385;28;20043;-75
2022/08/25 01:59:38;;;;;;;7.75;3.40;;;;;;;;;;5077606;28;20052;-75
2022/08/25 02:02:05;;;;;;;6.85;4.15;;;;;;;;;;5081213;28;20077;-75
2022/08/25 02:04:31;;;;;;;8.00;3.60;;;;;;;;;;5082674;28;20036;-76
2022/08/25 02:06:58;;;;;;;6.35;3.17;;;;;;;;;;5079542;28;20032;-75
2022/08/25 02:09:24;;;;;;;6.13;2.80;;;;;;;;;;5086527;28;20061;-76
2022/08/25 02:11:50;;;;;;;7.38;2.95;;;;;;;;;;5079611;28;20070;-75
2022/08/25 02:14:18;;;;;;;6.68;3.22;;;;;;;;;;5082699;28;20036;-75
2022/08/25 02:16:47;;;;;;;6.65;2.85;;;;;;;;;;5072065;28;20029;-76
2022/08/25 02:19:14;;;;;;;5.10;2.92;;;;;;;;;;5083463;28;20501;-78
2022/08/25 02:21:40;;;;;;;6.20;3.30;;;;;;;;;;5079834;28;20036;-76
2022/08/25 02:24:07;;;;;;;6.30;2.97;;;;;;;;;;5080558;28;20028;-75
2022/08/25 02:26:35;;;;;;;4.90;3.05;;;;;;;;;;5086299;28;20339;-75
2022/08/25 02:29:01;;;;;;;5.63;2.90;;;;;;;;;;5080087;28;20073;-76
2022/08/25 02:31:28;;;;;;;6.60;2.88;;;;;;;;;;5077415;28;20028;-75
2022/08/25 02:33:54;;;;;;;7.18;3.28;;;;;;;;;;5078730;28;20370;-76
2022/08/25 02:36:22;;;;;;;6.00;3.35;;;;;;;;;;5081817;28;20535;-78
2022/08/25 02:38:48;;;;;;;6.53;3.60;;;;;;;;;;5086318;28;20028;-77
2022/08/25 02:41:18;;;;;;;4.25;2.83;;;;;;;;;;5077243;28;20049;-77
2022/08/25 02:43:44;;;;;;;5.80;3.17;;;;;;;;;;5073689;28;20034;-77
2022/08/25 02:46:11;;;;;;;8.20;3.53;;;;;;;;;;5087072;28;20561;-77
2022/08/25 02:48:37;;;;;;;4.85;2.85;;;;;;;;;;5085319;28;20028;-77
2022/08/25 02:51:05;;;;;;;7.35;3.08;;;;;;;;;;5086657;28;20063;-77
2022/08/25 02:53:32;;;;;;;6.05;3.22;;;;;;;;;;5074494;28;20461;-78
2022/08/25 02:55:58;;;;;;;7.63;3.40;;;;;;;;;;5073270;28;20493;-77
2022/08/25 02:58:24;;;;;;;6.97;3.72;;;;;;;;;;5080120;28;20398;-78
2022/08/25 03:00:51;;;;;;;6.10;3.13;;;;;;;;;;5077780;28;20139;-77
2022/08/25 03:03:17;;;;;;;5.13;3.13;;;;;;;;;;5080997;28;20024;-77
2022/08/25 03:05:43;;;;;;;6.35;3.33;;;;;;;;;;5084229;28;20512;-77
2022/08/25 03:08:09;;;;;;;5.55;3.22;;;;;;;;;;5077685;28;20024;-78
2022/08/25 03:10:35;;;;;;;8.70;3.20;;;;;;;;;;5078100;28;20029;-77
2022/08/25 03:13:01;;;;;;;6.22;2.80;;;;;;;;;;5074399;28;20031;-77
2022/08/25 03:15:28;;;;;;;4.43;2.80;;;;;;;;;;5080951;28;20032;-77
2022/08/25 03:17:54;;;;;;;8.57;3.15;;;;;;;;;;5085333;28;20032;-77
2022/08/25 03:20:21;;;;;;;7.60;2.92;;;;;;;;;;5075866;28;20043;-77
2022/08/25 03:22:47;;;;;;;4.25;2.40;;;;;;;;;;5081042;28;20074;-78
2022/08/25 03:27:59;;;;;;;7.63;3.15;;;;;;;;;;5083614;28;20047;-77
2022/08/25 03:30:26;;;;;;;6.07;2.88;;;;;;;;;;5073919;28;20024;-78
2022/08/25 03:32:52;;;;;;;5.95;3.15;;;;;;;;;;5078276;28;20115;-77
2022/08/25 03:35:18;;;;;;;4.72;2.95;;;;;;;;;;5081618;28;20032;-77
2022/08/25 03:37:44;;;;;;;4.78;3.03;;;;;;;;;;5083346;28;20043;-77
2022/08/25 03:40:11;;;;;;;5.60;2.90;;;;;;;;;;5080142;28;20036;-78
2022/08/25 03:42:41;;;;;;;4.93;2.90;;;;;;;;;;5082351;28;20064;-78
2022/08/25 03:45:07;;;;;;;4.93;2.60;;;;;;;;;;5062522;28;20055;-78
2022/08/25 03:47:34;;;;;;;5.00;2.75;;;;;;;;;;5073448;28;20037;-77
2022/08/25 03:50:00;;;;;;;4.72;3.05;;;;;;;;;;5083585;28;20024;-78
2022/08/25 03:52:26;;;;;;;7.22;3.22;;;;;;;;;;5076339;28;20028;-77
2022/08/25 03:54:52;;;;;;;5.45;2.83;;;;;;;;;;5080875;28;20043;-77
2022/08/25 03:57:19;;;;;;;5.93;3.25;;;;;;;;;;5080901;28;20032;-77
2022/08/25 03:59:45;;;;;;;7.43;3.30;;;;;;;;;;5080636;28;20511;-78
2022/08/25 04:02:11;;;;;;;6.43;3.05;;;;;;;;;;5075182;28;20058;-77
2022/08/25 04:04:37;;;;;;;6.50;2.97;;;;;;;;;;5078557;28;20450;-77
2022/08/25 04:07:03;;;;;;;5.80;3.20;;;;;;;;;;5082206;28;20075;-77
2022/08/25 04:09:30;;;;;;;4.38;2.85;;;;;;;;;;5082145;28;20135;-77
2022/08/25 04:11:56;;;;;;;4.57;3.00;;;;;;;;;;5080581;28;20024;-77
2022/08/25 04:14:22;;;;;;;7.75;3.10;;;;;;;;;;5087345;28;20721;-77
2022/08/25 04:16:48;;;;;;;9.25;3.80;;;;;;;;;;5077047;28;20081;-77
2022/08/25 04:19:14;;;;;;;6.07;3.00;;;;;;;;;;5084964;28;20031;-78
2022/08/25 04:21:40;;;;;;;7.43;3.63;;;;;;;;;;5088146;28;20084;-78
2022/08/25 04:24:08;;;;;;;7.05;3.00;;;;;;;;;;5087844;28;20522;-77
2022/08/25 04:26:36;;;;;;;8.05;3.97;;;;;;;;;;5083103;28;20059;-78
2022/08/25 04:29:03;;;;;;;7.15;4.13;;;;;;;;;;5075877;28;20040;-77
2022/08/25 04:31:29;;;;;;;7.97;4.03;;;;;;;;;;5087242;28;20028;-78
2022/08/25 04:33:56;;;;;;;6.57;3.78;;;;;;;;;;5077891;28;20071;-78
2022/08/25 04:36:22;;;;;;;11.20;4.95;;;;;;;;;;5089963;28;20520;-77
2022/08/25 04:38:48;;;;;;;8.95;3.83;;;;;;;;;;5085925;28;20031;-78
2022/08/25 04:41:15;;;;;;;9.95;4.85;;;;;;;;;;5086508;28;20044;-78
2022/08/25 04:43:42;;;;;;;11.70;5.32;;;;;;;;;;5082985;28;20032;-78
2022/08/25 04:46:11;;;;;;;9.60;4.55;;;;;;;;;;5087640;28;20074;-76
2022/08/25 04:48:38;;;;;;;10.27;5.15;;;;;;;;;;5081094;28;20024;-76
2022/08/25 04:51:09;;;;;;;13.43;5.90;;;;;;;;;;5086151;28;20136;-75
2022/08/25 04:53:35;;;;;;;10.00;4.85;;;;;;;;;;5075740;28;20024;-76
2022/08/25 04:56:05;;;;;;;12.57;5.00;;;;;;;;;;5087637;28;20516;-76
2022/08/25 04:58:31;;;;;;;10.05;4.32;;;;;;;;;;5085480;28;20461;-75
2022/08/25 05:01:04;;;;;;;9.93;3.75;;;;;;;;;;5080241;28;20061;-75
2022/08/25 05:03:30;;;;;;;7.72;4.65;;;;;;;;;;5078202;28;20441;-77
2022/08/25 05:05:56;;;;;;;7.22;3.83;;;;;;;;;;5086880;28;20420;-78
2022/08/25 05:08:23;;;;;;;8.82;4.22;;;;;;;;;;5087170;28;20028;-78
2022/08/25 05:10:49;;;;;;;7.85;4.40;;;;;;;;;;5084147;28;20020;-77
2022/08/25 05:13:15;;;;;;;7.82;3.70;;;;;;;;;;5085778;28;20107;-78
2022/08/25 05:15:50;;;;;;;5.43;3.33;;;;;;;;;;5089031;28;20036;-77
2022/08/25 05:18:17;;;;;;;8.48;3.92;;;;;;;;;;5086027;28;20043;-77
2022/08/25 05:20:43;;;;;;;9.57;4.47;;;;;;;;;;5080863;28;20028;-78
2022/08/25 05:23:09;;;;;;;9.27;4.55;;;;;;;;;;5085923;28;20405;-77
2022/08/25 05:25:35;;;;;;;8.40;4.22;;;;;;;;;;5086237;28;20066;-78
2022/08/25 05:28:02;;;;;;;6.63;3.53;;;;;;;;;;5087114;28;20043;-77
2022/08/25 05:30:28;;;;;;;9.25;4.38;;;;;;;;;;5080356;28;20020;-77
2022/08/25 05:32:54;;;;;;;10.23;4.03;;;;;;;;;;5086204;28;20123;-78
2022/08/25 05:35:20;;;;;;;8.65;4.20;;;;;;;;;;5078441;28;20119;-77
2022/08/25 05:37:46;;;;;;;8.00;4.25;;;;;;;;;;5080223;28;20520;-77
2022/08/25 05:40:13;;;;;;;10.75;4.43;;;;;;;;;;5084042;28;20057;-77
2022/08/25 05:42:39;;;;;;;13.30;4.43;;;;;;;;;;5083406;28;20063;-77
2022/08/25 05:45:06;;;;;;;16.65;5.40;;;;;;;;;;5082179;28;20032;-77
2022/08/25 05:47:32;;;;;;;12.35;4.25;;;;;;;;;;5083989;28;20073;-78
2022/08/25 05:49:58;;;;;;;11.20;5.03;;;;;;;;;;5082768;28;20024;-77
2022/08/25 05:52:26;;;;;;;10.68;4.45;;;;;;;;;;5078805;28;20035;-77
2022/08/25 05:54:52;;;;;;;10.55;5.18;;;;;;;;;;5073596;28;20032;-77
2022/08/25 05:57:18;;;;;;;10.15;4.85;;;;;;;;;;5082292;28;20036;-77
2022/08/25 05:59:44;;;;;;;9.35;4.15;;;;;;;;;;5073794;28;20514;-77
2022/08/25 06:04:57;;;;;;;10.93;4.90;;;;;;;;;;5079909;28;20719;-77
2022/08/25 06:07:23;;;;;;;16.10;5.65;;;;;;;;;;5084621;28;20032;-77
2022/08/25 06:09:49;;;;;;;15.25;5.60;;;;;;;;;;5081773;28;20038;-77
2022/08/25 06:12:16;;;;;;;15.05;5.38;;;;;;;;;;5077249;28;20765;-77
2022/08/25 06:14:42;;;;;;;15.98;4.68;;;;;;;;;;5076321;28;20675;-77
2022/08/25 06:17:09;;;;;;;8.50;3.67;;;;;;;;;;5081890;28;20036;-77
2022/08/25 06:19:35;;;;;;;11.30;4.35;;;;;;;;;;5072582;28;20081;-77
2022/08/25 06:22:01;;;;;;;10.43;4.65;;;;;;;;;;5075337;28;20036;-77
2022/08/25 06:24:28;;;;;;;13.57;4.80;;;;;;;;;;5080169;28;20032;-77
2022/08/25 06:26:54;;;;;;;13.15;4.63;;;;;;;;;;5080772;28;20036;-76
2022/08/25 06:29:21;;;;;;;11.32;5.03;;;;;;;;;;5079812;28;20697;-76
2022/08/25 06:31:48;;;;;;;9.73;4.97;;;;;;;;;;5079763;28;20032;-76
2022/08/25 06:34:14;;;;;;;10.60;4.60;;;;;;;;;;5080909;28;20036;-76
2022/08/25 06:36:40;;;;;;;11.10;4.38;;;;;;;;;;5084242;28;20835;-76
2022/08/25 06:39:06;;;;;;;10.88;4.60;;;;;;;;;;5078882;28;20043;-75
2022/08/25 06:41:33;;;;;;;11.73;4.70;;;;;;;;;;5077845;28;20625;-75
2022/08/25 06:43:59;;;;;;;8.20;4.47;;;;;;;;;;5078016;28;20430;-75
2022/08/25 06:46:26;;;;;;;8.93;4.68;;;;;;;;;;5075313;28;20067;-75
2022/08/25 06:48:53;;;;;;;11.35;5.18;;;;;;;;;;5070777;28;20056;-76
2022/08/25 06:51:20;;;;;;;9.57;5.18;;;;;;;;;;5079084;28;20028;-76
2022/08/25 06:53:47;;;;;;;8.65;3.83;;;;;;;;;;5077046;28;20036;-75
2022/08/25 06:56:14;;;;;;;10.55;3.63;;;;;;;;;;5083925;28;20040;-76
2022/08/25 06:58:40;;;;;;;14.10;3.97;;;;;;;;;;5075096;28;20036;-76
2022/08/25 07:01:10;;;;;;;13.00;3.50;;;;;;;;;;5073992;28;20040;-76
2022/08/25 07:03:37;;;;;;;7.05;3.67;;;;;;;;;;5080346;28;20036;-76
2022/08/25 07:06:03;;;;;;;15.50;3.88;;;;;;;;;;5076047;28;20024;-76
2022/08/25 07:08:30;;;;;;;7.78;4.10;;;;;;;;;;5074051;28;20055;-76
2022/08/25 07:10:57;;;;;;;6.57;4.05;;;;;;;;;;5078068;28;20039;-76
2022/08/25 07:13:23;;;;;;;8.57;4.78;;;;;;;;;;5083119;28;20032;-76
2022/08/25 07:15:53;;;;;;;12.88;4.07;;;;;;;;;;5078838;28;20029;-76
2022/08/25 07:18:19;;;;;;;9.00;4.25;;;;;;;;;;5077787;28;20036;-76
2022/08/25 07:20:45;;;;;;;8.00;3.83;;;;;;;;;;5084006;28;20762;-76
2022/08/25 07:23:11;;;;;;;9.07;4.45;;;;;;;;;;5073425;28;20040;-76
2022/08/25 07:25:37;;;;;;;12.40;3.78;;;;;;;;;;5079550;28;20043;-76
2022/08/25 07:28:03;;;;;;;11.10;3.78;;;;;;;;;;5079147;28;20043;-76
2022/08/25 07:30:30;;;;;;;9.00;3.85;;;;;;;;;;5080927;28;20021;-76
2022/08/25 07:32:56;;;;;;;7.15;3.70;;;;;;;;;;5077078;28;20558;-76
2022/08/25 07:35:24;;;;;;;13.00;4.30;;;;;;;;;;5081788;28;20888;-76
2022/08/25 07:37:51;;;;;;;7.03;3.67;;;;;;;;;;5079638;28;20660;-76
2022/08/25 07:40:22;;;;;;;8.38;4.30;;;;;;;;;;5078815;28;20033;-76
2022/08/25 07:42:49;;;;;;;6.13;3.40;;;;;;;;;;5062382;28;20396;-76
2022/08/25 07:45:15;;;;;;;10.10;3.45;;;;;;;;;;5079255;28;20039;-76
2022/08/25 07:47:41;;;;;;;9.52;3.60;;;;;;;;;;5071612;28;20048;-76
2022/08/25 07:50:08;;;;;;;5.53;2.90;;;;;;;;;;5076328;28;20591;-76
2022/08/25 07:52:34;;;;;;;6.35;3.08;;;;;;;;;;5079417;28;20047;-76
2022/08/25 07:55:01;;;;;;;6.25;3.33;;;;;;;;;;5073751;28;20028;-76
2022/08/25 07:57:28;;;;;;;10.95;3.17;;;;;;;;;;5077469;28;20071;-76
2022/08/25 07:59:54;;;;;;;4.35;2.72;;;;;;;;;;5077541;28;20614;-76
2022/08/25 08:02:20;;;;;;;11.40;3.17;;;;;;;;;;5077288;28;20489;-76
2022/08/25 08:04:48;;;;;;;8.48;3.00;;;;;;;;;;5077997;28;20073;-76
2022/08/25 08:07:16;;;;;;;8.43;3.20;;;;;;;;;;5078514;28;20055;-76
2022/08/25 08:09:42;;;;;;;5.80;2.90;;;;;;;;;;5077575;28;20021;-76
2022/08/25 08:12:08;;;;;;;5.63;3.03;;;;;;;;;;5078034;28;21340;-76
2022/08/25 08:14:34;;;;;;;6.68;3.10;;;;;;;;;;5077530;28;20032;-76
2022/08/25 08:17:04;;;;;;;7.60;3.00;;;;;;;;;;5081518;28;20040;-76
2022/08/25 08:19:30;;;;;;;6.43;2.92;;;;;;;;;;5080206;28;20025;-76
2022/08/25 08:21:56;;;;;;;4.90;2.67;;;;;;;;;;5079017;28;20147;-76
2022/08/25 08:24:22;;;;;;;7.07;2.33;;;;;;;;;;5081921;28;20059;-76
2022/08/25 08:26:48;;;;;;;5.70;2.40;;;;;;;;;;5084185;28;20842;-76
2022/08/25 08:29:15;;;;;;;6.65;2.50;;;;;;;;;;5078746;28;20028;-76
2022/08/25 08:31:41;;;;;;;9.70;2.50;;;;;;;;;;5077381;28;20036;-76
2022/08/25 08:34:07;;;;;;;7.15;2.67;;;;;;;;;;5080642;28;20024;-76
2022/08/25 08:36:33;;;;;;;7.20;2.95;;;;;;;;;;5079086;28;20036;-76
2022/08/25 08:38:59;;;;;;;5.63;2.42;;;;;;;;;;5076138;28;20065;-76
2022/08/25 08:44:29;;;;;;;7.10;2.70;;;;;;;;;;5079761;28;20613;-76
2022/08/25 08:47:07;;;;;;;5.57;2.60;;;;;;;;;;5073058;28;20131;-76
2022/08/25 08:49:51;;;;;;;4.20;2.38;;;;;;;;;;5080016;28;21165;-76
2022/08/25 08:52:19;;;;;;;9.75;2.67;;;;;;;;;;5082928;28;20038;-76
2022/08/25 08:54:48;;;;;;;7.18;2.67;;;;;;;;;;5084002;28;20028;-76
2022/08/25 08:57:16;;;;;;;5.80;2.67;;;;;;;;;;5084714;28;20167;-76
2022/08/25 08:59:51;;;;;;;5.65;2.80;;;;;;;;;;5081962;28;20032;-76
2022/08/25 09:02:22;;;;;;;9.10;2.88;;;;;;;;;;5078186;28;20032;-76
2022/08/25 09:04:55;;;;;;;5.55;2.33;;;;;;;;;;5079649;28;20104;-76
2022/08/25 09:07:28;;;;;;;7.35;2.53;;;;;;;;;;5080188;28;20032;-76
2022/08/25 09:09:55;;;;;;;6.60;2.70;;;;;;;;;;5082447;28;20411;-76
2022/08/25 09:12:39;;;;;;;6.32;2.63;;;;;;;;;;5081553;28;20032;-77
2022/08/25 09:15:14;;;;;;;5.60;2.67;;;;;;;;;;5084743;28;20020;-76
2022/08/25 09:17:46;;;;;;;4.85;2.70;;;;;;;;;;5081440;28;20081;-77
2022/08/25 09:20:13;;;;;;;5.03;2.05;;;;;;;;;;5081975;28;20085;-77
2022/08/25 09:22:39;;;;;;;6.03;2.20;;;;;;;;;;5084233;28;20070;-77
2022/08/25 09:25:10;;;;;;;5.93;2.60;;;;;;;;;;5082356;28;20485;-76
2022/08/25 09:27:37;;;;;;;;;;;;;;;;;;5081612;28;20131;-77
2022/08/25 09:30:03;;;;;;;4.90;2.58;;;;;;;;;;5083368;28;19999;-77
2022/08/25 09:32:32;;;;;;;4.40;2.30;;;;;;;;;;5083720;28;20491;-77
2022/08/25 09:34:59;;;;;;;4.95;2.38;;;;;;;;;;5080584;28;20031;-77
2022/08/25 09:37:25;;;;;;;7.60;2.65;;;;;;;;;;5080605;28;20144;-77
2022/08/25 09:39:51;;;;;;;5.47;2.20;;;;;;;;;;5087914;28;20055;-77
2022/08/25 09:42:18;;;;;;;7.20;2.70;;;;;;;;;;5084340;28;20105;-77
2022/08/25 09:44:46;;;;;;;6.15;2.40;;;;;;;;;;5080343;28;20807;-77
2022/08/25 09:47:19;;;;;;;5.63;2.72;;;;;;;;;;5087975;28;20038;-77
2022/08/25 09:49:47;;;;;;;7.57;2.55;;;;;;;;;;5082636;28;20024;-77
2022/08/25 09:52:31;;;;;;;7.82;2.60;;;;;;;;;;5079328;28;20051;-78
2022/08/25 09:54:59;;;;;;;6.15;2.40;;;;;;;;;;5081130;28;20495;-78
2022/08/25 09:57:30;;;;;;;10.30;3.03;;;;;;;;;;5083506;28;20570;-78
2022/08/25 09:59:56;;;;;;;17.80;8.65;;;;;;;;;;5082508;28;20048;-78
2022/08/25 10:02:28;;;;;;;6.72;3.00;;;;;;;;;;5078168;28;20031;-78
2022/08/25 10:04:55;;;;;;;6.55;2.50;;;;;;;;;;5074903;28;20393;-78
2022/08/25 10:07:29;;;;;;;8.35;2.78;;;;;;;;;;5085965;28;20038;-78
2022/08/25 10:09:56;;;;;;;7.10;2.70;;;;;;;;;;5078762;28;20385;-78
2022/08/25 10:12:24;;;;;;;7.03;2.13;;;;;;;;;;5081628;28;20051;-78
2022/08/25 10:14:51;;;;;;;8.70;2.80;;;;;;;;;;5082081;28;20037;-78
2022/08/25 10:17:28;;;;;;;6.25;2.70;;;;;;;;;;5084405;28;20408;-78
2022/08/25 10:20:14;;;;;;;6.07;2.42;;;;;;;;;;5086650;28;20520;-78
2022/08/25 10:22:41;;;;;;;6.47;2.00;;;;;;;;;;5067946;28;20048;-78
2022/08/25 10:25:09;;;;;;;6.72;1.73;;;;;;;;;;5082864;28;20028;-78
2022/08/25 10:27:58;;;;;;;5.70;2.50;;;;;;;;;;5080797;28;20024;-78
2022/08/25 10:30:24;;;;;;;7.15;2.30;;;;;;;;;;5084884;28;20032;-78
2022/08/25 10:32:59;;;;;;;4.25;2.03;;;;;;;;;;5088572;28;20028;-78
2022/08/25 10:35:45;;;;;;;6.60;2.08;;;;;;;;;;5081488;28;20059;-78
2022/08/25 10:38:14;;;;;;;3.83;1.80;;;;;;;;;;5067042;28;20038;-78
2022/08/25 10:40:44;;;;;;;6.03;2.22;;;;;;;;;;5083063;28;20044;-79
2022/08/25 10:43:10;;;;;;;5.55;2.08;;;;;;;;;;5078277;28;20032;-78
2022/08/25 10:45:43;;;;;;;3.42;1.67;;;;;;;;;;5084720;28;20365;-78
2022/08/25 10:48:11;;;;;;;6.95;2.28;;;;;;;;;;5079827;28;20450;-78
2022/08/25 10:50:37;;;;;;;4.68;2.03;;;;;;;;;;5081839;28;20078;-79
2022/08/25 10:53:03;;;;;;;5.20;2.05;;;;;;;;;;5084629;28;20028;-78
2022/08/25 10:55:50;;;;;;;5.20;1.85;;;;;;;;;;5079891;28;20031;-78
2022/08/25 10:58:16;;;;;;;5.47;1.75;;;;;;;;;;5037796;28;20497;-78
2022/08/25 11:00:52;;;;;;;4.90;1.80;;;;;;;;;;5079125;28;20048;-78
2022/08/25 11:03:28;;;;;;;8.02;1.73;;;;;;;;;;5080992;28;20105;-78
2022/08/25 11:06:03;;;;;;;3.85;1.40;;;;;;;;;;5076297;28;20033;-78
2022/08/25 11:08:32;;;;;;;4.40;1.80;;;;;;;;;;5077011;28;20031;-78
2022/08/25 11:11:01;;;;;;;5.78;1.58;;;;;;;;;;5074849;28;20028;-78
2022/08/25 11:13:39;;;;;;;5.50;1.95;;;;;;;;;;5076350;28;20096;-78
2022/08/25 11:16:12;;;;;;;3.83;1.70;;;;;;;;;;5079931;28;20482;-78
2022/08/25 11:18:43;;;;;;;6.95;1.92;;;;;;;;;;5082918;28;20036;-78
2022/08/25 11:21:15;;;;;;;4.30;1.90;;;;;;;;;;5080917;28;20031;-78
2022/08/25 11:23:41;;;;;;;;;;;;;;;;;;5081543;28;20024;-78
2022/08/25 11:26:10;;;;;;;3.80;1.45;;;;;;;;;;5074472;28;20677;-78
2022/08/25 11:28:53;;;;;;;3.22;1.70;;;;;;;;;;5081016;28;20111;-78
2022/08/25 11:31:19;;;;;;;4.68;2.47;;;;;;;;;;5078012;28;20063;-78
2022/08/25 11:33:45;;;;;;;6.10;2.00;;;;;;;;;;5072506;28;20098;-78
2022/08/25 11:36:17;;;;;;;5.50;1.75;;;;;;;;;;5081850;28;20024;-78
2022/08/25 11:38:43;;;;;;;4.15;2.08;;;;;;;;;;5082668;28;20031;-78
2022/08/25 11:41:19;;;;;;;4.15;1.77;;;;;;;;;;5086036;28;20036;-79
2022/08/25 11:43:45;;;;;;;2.92;1.42;;;;;;;;;;5074222;28;20468;-78
2022/08/25 11:46:20;;;;;;;5.75;1.90;;;;;;;;;;5077445;28;20150;-78
2022/08/25 11:48:58;;;;;;;3.17;1.55;;;;;;;;;;5083191;28;20119;-78
2022/08/25 11:51:45;;;;;;;4.10;1.27;;;;;;;;;;5081343;28;20096;-78
2022/08/25 11:54:27;;;;;;;10.48;2.00;;;;;;;;;;5079172;28;20119;-78
2022/08/25 11:56:53;;;;;;;;;;;;;;;;;;5078361;28;20033;-78
2022/08/25 11:59:37;;;;;;;3.85;1.60;;;;;;;;;;5080519;28;19949;-78
2022/08/25 12:02:04;;;;;;;5.57;1.75;;;;;;;;;;5080438;28;20044;-78
2022/08/25 12:04:42;;;;;;;6.55;1.80;;;;;;;;;;5077872;28;20028;-78
2022/08/25 12:07:09;;;;;;;5.78;2.00;;;;;;;;;;5078795;28;20068;-78
2022/08/25 12:09:38;;;;;;;7.60;2.28;;;;;;;;;;5079941;28;20484;-78
2022/08/25 12:12:23;;;;;;;3.88;1.60;;;;;;;;;;5078730;28;20098;-78
2022/08/25 12:14:51;;;;;;;4.32;1.60;;;;;;;;;;5073548;28;20029;-78
2022/08/25 12:17:19;;;;;;;3.72;1.50;;;;;;;;;;5078666;28;20699;-78
2022/08/25 12:19:45;;;;;;;3.13;1.60;;;;;;;;;;5079025;28;20074;-78
2022/08/25 12:22:11;;;;;;;7.50;1.77;;;;;;;;;;5079859;28;20033;-78
2022/08/25 12:24:37;;;;;;;4.13;1.83;;;;;;;;;;5083593;28;20032;-78
2022/08/25 12:27:05;;;;;;;5.38;1.90;;;;;;;;;;5081662;28;20705;-78
2022/08/25 12:29:31;;;;;;;6.75;1.83;;;;;;;;;;5084861;28;20926;-78
2022/08/25 12:32:01;;;;;;;4.78;1.40;;;;;;;;;;5083509;28;20036;-78
2022/08/25 12:34:30;;;;;;;5.40;1.73;;;;;;;;;;5083956;28;20024;-78
2022/08/25 12:36:58;;;;;;;4.60;1.63;;;;;;;;;;5083543;28;20047;-78
2022/08/25 12:39:29;;;;;;;5.35;1.75;;;;;;;;;;5085606;28;20028;-78
2022/08/25 12:41:59;;;;;;;4.87;1.40;;;;;;;;;;5087793;28;20069;-78
2022/08/25 12:44:43;;;;;;;3.93;1.50;;;;;;;;;;5086563;28;20273;-78
2022/08/25 12:47:27;;;;;;;6.68;1.58;;;;;;;;;;5085603;28;20089;-78
2022/08/25 12:49:53;;;;;;;6.75;1.70;;;;;;;;;;5084540;28;20035;-78
2022/08/25 12:52:21;;;;;;;7.22;1.83;;;;;;;;;;5082768;28;20032;-78
2022/08/25 12:54:53;;;;;;;9.25;2.20;;;;;;;;;;5088031;28;20074;-78
2022/08/25 12:57:22;;;;;;;7.00;1.92;;;;;;;;;;5081461;28;20037;-78
2022/08/25 12:59:53;;;;;;;10.35;2.15;;;;;;;;;;5085862;28;20040;-78
2022/08/25 13:02:19;;;;;;;;;;;;;;;;;;5083665;28;20441;-78
2022/08/25 13:04:48;;;;;;;4.55;1.63;;;;;;;;;;5082303;28;19958;-78
2022/08/25 13:07:29;;;;;;;8.07;1.70;;;;;;;;;;5079216;28;20478;-78
2022/08/25 13:10:14;;;;;;;4.25;1.80;;;;;;;;;;5083246;28;20024;-79
2022/08/25 13:12:52;;;;;;;3.13;1.55;;;;;;;;;;5086029;28;20035;-78
2022/08/25 13:15:26;;;;;;;3.90;1.60;;;;;;;;;;5080001;28;20028;-78
2022/08/25 13:17:52;;;;;;;5.72;1.48;;;;;;;;;;5082130;28;20035;-78
2022/08/25 13:20:22;;;;;;;4.60;1.40;;;;;;;;;;5093583;22;20062;-78
2022/08/25 13:22:49;;;;;;;5.50;1.63;;;;;;;;;;5080012;28;20024;-78
2022/08/25 13:25:20;;;;;;;5.00;1.52;;;;;;;;;;5082977;28;20089;-78
2022/08/25 13:27:50;;;;;;;6.50;1.50;;;;;;;;;;5082796;28;20031;-78
2022/08/25 13:30:30;;;;;;;4.63;1.52;;;;;;;;;;5084881;28;20032;-78
2022/08/25 13:32:56;;;;;;;1.98;1.05;;;;;;;;;;5084310;28;20043;-78
2022/08/25 13:35:24;;;;;;;5.43;1.38;;;;;;;;;;5083564;28;20068;-77
2022/08/25 13:37:51;;;;;;;2.55;1.33;;;;;;;;;;5085870;28;20055;-78
2022/08/25 13:40:26;;;;;;;4.85;1.30;;;;;;;;;;5086181;28;20039;-78
2022/08/25 13:42:54;;;;;;;3.33;1.70;;;;;;;;;;5083885;28;20055;-78
2022/08/25 13:45:24;;;;;;;3.22;1.25;;;;;;;;;;5084120;28;20067;-78
2022/08/25 13:47:52;;;;;;;2.40;1.30;;;;;;;;;;5083733;28;20036;-78
2022/08/25 13:50:17;;;;;;;4.38;1.40;;;;;;;;;;5087879;28;20365;-78
2022/08/25 13:52:52;;;;;;;4.00;1.35;;;;;;;;;;5088490;28;20036;-78
2022/08/25 13:55:38;;;;;;;8.48;1.60;;;;;;;;;;5084831;28;20032;-78
2022/08/25 13:58:05;;;;;;;6.45;1.30;;;;;;;;;;5081959;28;20036;-78
2022/08/25 14:00:31;;;;;;;2.83;1.20;;;;;;;;;;5079785;28;20028;-78
2022/08/25 14:02:58;;;;;;;3.70;1.30;;;;;;;;;;5082253;28;20042;-78
2022/08/25 14:05:36;;;;;;;3.38;1.35;;;;;;;;;;5082108;28;20087;-78
2022/08/25 14:08:03;;;;;;;4.28;1.33;;;;;;;;;;5082919;28;20032;-78
2022/08/25 14:10:31;;;;;;;3.22;1.25;;;;;;;;;;5084527;28;20088;-78
2022/08/25 14:13:09;;;;;;;3.47;0.98;;;;;;;;;;5083245;28;20032;-78
2022/08/25 14:15:37;;;;;;;4.60;1.10;;;;;;;;;;5081029;28;20056;-78
2022/08/25 14:18:10;;;;;;;3.00;1.27;;;;;;;;;;5081166;28;20024;-78
2022/08/25 14:20:36;;;;;;;2.72;1.20;;;;;;;;;;5084629;28;20056;-78
2022/08/25 14:23:07;;;;;;;2.53;1.20;;;;;;;;;;5082651;28;20484;-80
2022/08/25 14:25:34;;;;;;;3.43;1.17;;;;;;;;;;5076806;28;20034;-78
2022/08/25 14:28:04;;;;;;;3.20;1.15;;;;;;;;;;5065025;28;20406;-77
2022/08/25 14:30:31;;;;;;;2.30;1.30;;;;;;;;;;5082083;28;20036;-78
2022/08/25 14:32:57;;;;;;;4.50;1.10;;;;;;;;;;5090320;28;20032;-78
2022/08/25 14:35:24;;;;;;;7.30;1.40;;;;;;;;;;5084867;28;20036;-78
2022/08/25 14:37:50;;;;;;;6.60;1.05;;;;;;;;;;5085781;28;20074;-78
2022/08/25 14:40:18;;;;;;;5.00;1.30;;;;;;;;;;5086531;28;20043;-78
2022/08/25 14:42:46;;;;;;;5.68;1.30;;;;;;;;;;5084226;28;20032;-78
2022/08/25 14:45:12;;;;;;;3.03;1.20;;;;;;;;;;5084757;28;20024;-78
2022/08/25 14:47:38;;;;;;;3.03;1.38;;;;;;;;;;5078985;28;20737;-78
2022/08/25 14:50:06;;;;;;;4.20;1.10;;;;;;;;;;5075560;28;20025;-78
2022/08/25 14:52:32;;;;;;;6.78;1.27;;;;;;;;;;5079466;28;20767;-78
2022/08/25 14:54:58;;;;;;;3.05;1.38;;;;;;;;;;5084003;28;20032;-78
2022/08/25 14:57:24;;;;;;;2.13;0.90;;;;;;;;;;5085313;28;20037;-78
2022/08/25 14:59:51;;;;;;;6.55;1.30;;;;;;;;;;5085206;28;20362;-78